createdAt,value
2019-05-28T00:01:05.652Z,43.00
2019-05-28T00:04:00.769Z,43.50
2019-05-28T00:06:55.536Z,43.30
2019-05-28T00:09:50.445Z,43.70
2019-05-28T00:12:44.990Z,43.50
2019-05-28T00:15:39.675Z,43.30
2019-05-28T00:18:34.279Z,43.40
2019-05-28T00:21:28.682Z,43.70
2019-05-28T00:24:23.337Z,43.80
2019-05-28T00:27:18.267Z,43.50
2019-05-28T00:30:19.661Z,43.60
2019-05-28T00:33:09.586Z,44.00
2019-05-28T00:36:04.720Z,43.60
2019-05-28T00:38:59.207Z,44.60
2019-05-28T00:41:53.692Z,42.90
2019-05-28T00:44:48.213Z,43.10
2019-05-28T00:47:43.049Z,43.90
2019-05-28T00:50:37.729Z,44.20
2019-05-28T00:53:31.942Z,44.10
2019-05-28T00:56:26.573Z,43.60
2019-05-28T00:59:21.362Z,43.80
2019-05-28T01:02:15.851Z,43.60
2019-05-28T01:05:11.789Z,43.80
2019-05-28T01:08:09.241Z,43.90
2019-05-28T01:11:03.511Z,43.70
2019-05-28T01:13:57.892Z,43.70
2019-05-28T01:16:52.157Z,43.80
2019-05-28T01:19:46.571Z,43.60
2019-05-28T01:22:42.153Z,44.00
2019-05-28T01:25:36.499Z,44.30
2019-05-28T01:28:30.774Z,44.20
2019-05-28T01:31:25.820Z,44.60
2019-05-28T01:34:20.250Z,45.10
2019-05-28T01:37:16.381Z,44.90
2019-05-28T01:40:11.032Z,45.20
2019-05-28T01:43:05.571Z,45.10
2019-05-28T01:46:01.837Z,44.90
2019-05-28T01:48:56.395Z,44.80
2019-05-28T01:51:52.519Z,44.30
2019-05-28T01:54:47.072Z,44.50
2019-05-28T01:57:41.278Z,44.50
2019-05-28T02:00:35.869Z,44.80
2019-05-28T02:03:30.483Z,44.50
2019-05-28T02:06:25.056Z,44.30
2019-05-28T02:09:19.283Z,44.50
2019-05-28T02:12:13.799Z,44.30
2019-05-28T02:15:09.067Z,44.30
2019-05-28T02:18:04.791Z,44.50
2019-05-28T02:20:59.346Z,44.40
2019-05-28T02:23:53.600Z,44.20
2019-05-28T02:26:48.158Z,44.30
2019-05-28T02:29:42.645Z,44.50
2019-05-28T02:32:36.910Z,44.60
2019-05-28T02:35:31.336Z,44.40
2019-05-28T02:38:25.537Z,44.40
2019-05-28T02:41:20.124Z,44.70
2019-05-28T02:44:14.603Z,44.40
2019-05-28T02:47:09.977Z,44.60
2019-05-28T02:50:04.366Z,44.70
2019-05-28T02:52:59.026Z,44.70
2019-05-28T02:55:53.952Z,44.70
2019-05-28T02:58:52.723Z,44.60
2019-05-28T03:01:48.238Z,44.50
2019-05-28T03:04:42.896Z,45.00
2019-05-28T03:07:39.529Z,45.10
2019-05-28T03:11:01.389Z,45.10
2019-05-28T03:13:35.880Z,45.30
2019-05-28T03:16:33.018Z,45.20
2019-05-28T03:19:29.878Z,45.60
2019-05-28T03:22:24.844Z,45.30
2019-05-28T03:25:21.354Z,45.50
2019-05-28T03:28:15.978Z,45.50
2019-05-28T03:31:11.151Z,49.50
2019-05-28T03:34:07.416Z,47.00
2019-05-28T03:37:03.811Z,46.30
2019-05-28T03:40:01.554Z,47.00
2019-05-28T03:42:58.166Z,46.20
2019-05-28T03:45:52.774Z,44.80
2019-05-28T03:48:47.612Z,47.80
2019-05-28T03:51:41.797Z,47.50
2019-05-28T03:54:36.716Z,45.60
2019-05-28T03:57:32.904Z,44.20
2019-05-28T04:00:29.337Z,43.20
2019-05-28T04:03:24.072Z,42.10
2019-05-28T04:06:18.845Z,41.20
2019-05-28T04:09:15.184Z,40.60
2019-05-28T04:12:09.555Z,40.00
2019-05-28T04:15:03.781Z,40.00
2019-05-28T04:17:58.017Z,39.80
2019-05-28T04:20:52.345Z,39.80
2019-05-28T04:23:46.771Z,39.50
2019-05-28T04:26:41.085Z,39.30
2019-05-28T04:29:35.501Z,39.30
2019-05-28T04:32:40.084Z,39.50
2019-05-28T04:35:25.964Z,39.10
2019-05-28T04:38:22.118Z,37.60
2019-05-28T04:41:18.180Z,36.80
2019-05-28T04:44:12.470Z,36.90
2019-05-28T04:47:11.658Z,36.80
2019-05-28T04:50:06.561Z,37.80
2019-05-28T04:53:06.168Z,38.50
2019-05-28T04:56:00.439Z,39.20
2019-05-28T04:58:55.704Z,39.40
2019-05-28T05:01:50.179Z,42.60
2019-05-28T05:04:47.113Z,41.20
2019-05-28T05:07:41.510Z,41.80
2019-05-28T05:10:35.934Z,41.00
2019-05-28T05:13:37.823Z,40.80
2019-05-28T05:16:37.987Z,42.50
2019-05-28T05:19:33.488Z,43.10
2019-05-28T05:22:36.014Z,41.80
2019-05-28T05:25:39.456Z,40.90
2019-05-28T05:29:00.448Z,40.00
2019-05-28T05:31:56.751Z,39.00
2019-05-28T05:34:55.448Z,38.80
2019-05-28T05:37:51.813Z,40.10
2019-05-28T05:40:50.288Z,41.60
2019-05-28T05:43:45.227Z,41.80
2019-05-28T05:46:42.523Z,41.80
2019-05-28T05:49:41.387Z,41.60
2019-05-28T05:52:38.086Z,41.20
2019-05-28T05:55:34.739Z,41.00
2019-05-28T06:05:13.535Z,41.00
2019-05-28T06:08:19.032Z,41.30
2019-05-28T06:11:16.486Z,40.90
2019-05-28T06:14:17.804Z,41.30
2019-05-28T06:17:14.034Z,41.10
2019-05-28T06:20:10.437Z,40.80
2019-05-28T06:23:05.425Z,41.30
2019-05-28T06:26:02.931Z,41.10
2019-05-28T06:28:59.615Z,40.90
2019-05-28T06:32:03.766Z,40.80
2019-05-28T06:35:01.259Z,40.50
2019-05-28T06:38:15.961Z,40.80
2019-05-28T06:41:11.593Z,41.00
2019-05-28T06:44:09.315Z,40.80
2019-05-28T06:47:09.341Z,40.70
2019-05-28T06:50:07.755Z,40.60
2019-05-28T06:53:05.970Z,40.70
2019-05-28T06:56:02.858Z,40.70
2019-05-28T06:58:58.016Z,40.40
2019-05-28T07:01:54.497Z,40.20
2019-05-28T07:04:54.257Z,40.40
2019-05-28T07:07:52.017Z,40.30
2019-05-28T07:10:57.160Z,40.80
2019-05-28T07:13:48.285Z,41.50
2019-05-28T07:16:53.300Z,41.30
2019-05-28T07:19:40.790Z,41.30
2019-05-28T07:22:35.374Z,41.40
2019-05-28T07:25:29.544Z,41.60
2019-05-28T07:28:24.664Z,41.60
2019-05-28T07:31:21.711Z,41.30
2019-05-28T07:34:30.851Z,41.10
2019-05-28T07:37:20.291Z,41.00
2019-05-28T07:40:30.419Z,40.70
2019-05-28T07:43:19.571Z,40.60
2019-05-28T07:46:16.331Z,40.60
2019-05-28T07:49:14.031Z,40.80
2019-05-28T07:52:08.994Z,40.80
2019-05-28T07:55:03.756Z,40.90
2019-05-28T07:58:00.769Z,40.60
2019-05-28T08:00:56.629Z,40.40
2019-05-28T08:03:53.446Z,40.10
2019-05-28T08:07:03.630Z,40.00
2019-05-28T08:10:09.265Z,40.40
2019-05-28T08:13:15.982Z,40.30
2019-05-28T08:16:26.726Z,40.50
2019-05-28T08:19:22.768Z,40.40
2019-05-28T08:26:08.302Z,40.20
2019-05-28T08:29:16.936Z,40.10
2019-05-28T08:32:16.553Z,40.00
2019-05-28T08:39:26.671Z,42.10
2019-05-28T08:42:22.181Z,43.40
2019-05-28T08:45:18.060Z,43.80
2019-05-28T08:48:12.893Z,43.70
2019-05-28T08:51:10.528Z,43.30
2019-05-28T08:54:20.274Z,43.20
2019-05-28T08:57:21.039Z,43.40
2019-05-28T09:00:21.125Z,44.20
2019-05-28T09:03:18.631Z,44.40
2019-05-28T09:11:18.241Z,43.50
2019-05-28T09:14:58.585Z,42.90
2019-05-28T09:18:36.871Z,42.20
2019-05-28T09:26:37.516Z,41.60
2019-05-28T09:29:41.610Z,41.60
2019-05-28T09:33:09.630Z,41.30
2019-05-28T09:36:08.975Z,41.10
2019-05-28T09:39:04.461Z,40.90
2019-05-28T09:42:05.617Z,40.90
2019-05-28T09:45:45.807Z,40.80
2019-05-28T09:51:38.437Z,40.90
2019-05-28T09:54:57.291Z,40.80
2019-05-28T09:57:56.126Z,40.60
2019-05-28T10:00:58.343Z,40.90
2019-05-28T10:04:01.154Z,40.40
2019-05-28T10:07:06.205Z,40.80
2019-05-28T10:10:08.387Z,40.80
2019-05-28T10:13:07.007Z,40.60
2019-05-28T10:16:04.440Z,40.50
2019-05-28T10:19:14.583Z,40.10
2019-05-28T10:22:12.746Z,40.10
2019-05-28T10:25:09.461Z,40.40
2019-05-28T10:28:10.048Z,40.20
2019-05-28T10:31:06.540Z,40.10
2019-05-28T10:34:04.344Z,39.90
2019-05-28T10:37:02.599Z,39.30
2019-05-28T10:39:58.263Z,39.10
2019-05-28T10:42:56.702Z,40.60
2019-05-28T10:45:53.487Z,41.10
2019-05-28T10:49:12.226Z,41.50
2019-05-28T10:52:10.782Z,41.80
2019-05-28T10:55:07.730Z,41.90
2019-05-28T10:58:10.642Z,42.10
2019-05-28T11:01:04.361Z,42.40
2019-05-28T11:04:00.142Z,42.40
2019-05-28T11:07:10.523Z,42.70
2019-05-28T11:10:24.388Z,42.60
2019-05-28T11:14:08.808Z,42.50
2019-05-28T11:17:08.004Z,42.40
2019-05-28T11:20:05.085Z,42.40
2019-05-28T11:23:05.941Z,42.50
2019-05-28T11:26:04.832Z,42.20
2019-05-28T11:29:02.778Z,42.00
